createdAt,value
2022-07-25T00:02:07.988Z,5.20
2022-07-25T00:04:36.734Z,5.47
2022-07-25T00:07:04.536Z,5.63
2022-07-25T00:09:32.332Z,5.53
2022-07-25T00:12:00.153Z,5.72
2022-07-25T00:14:29.226Z,5.18
2022-07-25T00:16:56.955Z,5.73
2022-07-25T00:19:24.732Z,5.20
2022-07-25T00:21:52.482Z,6.15
2022-07-25T00:24:20.220Z,5.70
2022-07-25T00:26:47.953Z,5.30
2022-07-25T00:29:15.691Z,5.47
2022-07-25T00:31:44.970Z,5.72
2022-07-25T00:34:12.754Z,5.25
2022-07-25T00:36:40.477Z,5.75
2022-07-25T00:39:08.208Z,5.30
2022-07-25T00:41:36.520Z,5.38
2022-07-25T00:44:04.657Z,5.63
2022-07-25T00:46:32.541Z,5.35
2022-07-25T00:49:01.797Z,5.70
2022-07-25T00:51:29.636Z,5.95
2022-07-25T00:53:57.388Z,5.10
2022-07-25T00:56:25.139Z,5.13
2022-07-25T00:58:52.868Z,6.00
2022-07-25T01:01:20.654Z,5.20
2022-07-25T01:03:48.458Z,6.05
2022-07-25T01:06:17.590Z,5.78
2022-07-25T01:08:45.312Z,5.40
2022-07-25T01:11:13.126Z,5.40
2022-07-25T01:13:40.854Z,5.70
2022-07-25T01:16:09.118Z,5.68
2022-07-25T01:18:37.161Z,5.50
2022-07-25T01:21:06.590Z,5.50
2022-07-25T01:23:34.319Z,5.70
2022-07-25T01:26:02.077Z,5.32
2022-07-25T01:28:29.788Z,5.20
2022-07-25T01:30:57.587Z,5.68
2022-07-25T01:33:25.331Z,5.60
2022-07-25T01:35:53.121Z,5.43
2022-07-25T01:38:22.171Z,5.65
2022-07-25T01:40:49.926Z,5.43
2022-07-25T01:43:17.650Z,5.10
2022-07-25T01:45:45.395Z,5.68
2022-07-25T01:48:13.203Z,5.30
2022-07-25T01:50:40.957Z,5.78
2022-07-25T01:53:08.684Z,5.65
2022-07-25T01:55:37.790Z,5.40
2022-07-25T01:58:06.342Z,5.13
2022-07-25T02:00:35.726Z,5.68
2022-07-25T02:03:20.689Z,5.85
2022-07-25T02:05:48.480Z,5.70
2022-07-25T02:08:16.184Z,5.90
2022-07-25T02:10:46.237Z,5.82
2022-07-25T02:13:13.948Z,5.87
2022-07-25T02:15:41.688Z,5.25
2022-07-25T02:18:09.484Z,5.60
2022-07-25T02:20:37.201Z,5.43
2022-07-25T02:23:05.060Z,5.75
2022-07-25T02:25:32.857Z,5.75
2022-07-25T02:28:01.977Z,5.78
2022-07-25T02:30:29.948Z,6.07
2022-07-25T02:32:57.732Z,6.03
2022-07-25T02:35:25.456Z,6.55
2022-07-25T02:37:53.213Z,6.38
2022-07-25T02:40:20.954Z,5.47
2022-07-25T02:42:48.710Z,5.63
2022-07-25T02:45:18.000Z,6.18
2022-07-25T02:47:45.735Z,5.88
2022-07-25T02:50:15.036Z,5.80
2022-07-25T02:52:42.957Z,6.03
2022-07-25T02:55:11.415Z,6.10
2022-07-25T02:57:39.175Z,5.97
2022-07-25T03:00:08.299Z,5.88
2022-07-25T03:02:37.437Z,5.70
2022-07-25T03:05:07.303Z,5.68
2022-07-25T03:10:02.590Z,5.85
2022-07-25T03:12:36.835Z,5.72
2022-07-25T03:15:05.161Z,5.93
2022-07-25T03:17:32.933Z,5.45
2022-07-25T03:20:02.020Z,6.13
2022-07-25T03:22:29.809Z,5.77
2022-07-25T03:24:57.580Z,5.50
2022-07-25T03:27:25.342Z,5.60
2022-07-25T03:29:54.348Z,5.55
2022-07-25T03:32:23.225Z,5.75
2022-07-25T03:34:50.945Z,5.82
2022-07-25T03:37:20.029Z,4.97
2022-07-25T03:39:47.749Z,5.73
2022-07-25T03:42:15.527Z,5.35
2022-07-25T03:44:43.270Z,5.57
2022-07-25T03:47:11.048Z,5.47
2022-07-25T03:49:48.492Z,6.05
2022-07-25T03:52:16.252Z,5.88
2022-07-25T03:54:45.337Z,5.75
2022-07-25T03:57:13.080Z,5.30
2022-07-25T03:59:40.795Z,5.85
2022-07-25T04:02:08.590Z,5.50
2022-07-25T04:04:36.345Z,5.90
2022-07-25T04:07:04.117Z,5.38
2022-07-25T04:09:33.550Z,5.05
2022-07-25T04:12:02.980Z,5.00
2022-07-25T04:14:30.702Z,5.53
2022-07-25T04:16:58.527Z,5.45
2022-07-25T04:19:28.300Z,4.75
2022-07-25T04:21:56.836Z,5.80
2022-07-25T04:24:24.545Z,5.53
2022-07-25T04:26:52.289Z,5.35
2022-07-25T04:29:21.355Z,5.47
2022-07-25T04:31:49.150Z,4.83
2022-07-25T04:34:16.924Z,5.88
2022-07-25T04:36:44.683Z,5.30
2022-07-25T04:39:12.417Z,5.50
2022-07-25T04:41:40.149Z,5.22
2022-07-25T04:44:08.981Z,5.60
2022-07-25T04:46:38.446Z,5.07
2022-07-25T04:49:06.234Z,5.33
2022-07-25T04:51:34.063Z,5.10
2022-07-25T04:54:01.779Z,5.65
2022-07-25T04:56:29.523Z,5.25
2022-07-25T04:58:58.671Z,5.57
2022-07-25T05:01:29.704Z,5.80
2022-07-25T05:03:58.792Z,5.50
2022-07-25T05:06:26.605Z,5.43
2022-07-25T05:08:54.353Z,5.63
2022-07-25T05:11:22.106Z,5.80
2022-07-25T05:13:49.821Z,5.55
2022-07-25T05:16:17.628Z,5.95
2022-07-25T05:18:45.375Z,5.78
2022-07-25T05:21:14.583Z,5.63
2022-07-25T05:23:42.336Z,5.35
2022-07-25T05:26:10.084Z,5.88
2022-07-25T05:28:37.803Z,5.53
2022-07-25T05:31:07.014Z,5.55
2022-07-25T05:33:35.234Z,5.20
2022-07-25T05:36:03.421Z,6.10
2022-07-25T05:38:32.502Z,6.85
2022-07-25T05:41:00.236Z,6.70
2022-07-25T05:43:27.939Z,7.55
2022-07-25T05:46:00.613Z,6.63
2022-07-25T05:48:28.350Z,6.47
2022-07-25T05:50:56.774Z,7.20
2022-07-25T05:53:24.470Z,10.57
2022-07-25T05:55:53.542Z,14.43
2022-07-25T05:58:23.961Z,12.63
2022-07-25T06:00:55.380Z,11.25
2022-07-25T06:03:23.105Z,10.35
2022-07-25T06:05:50.889Z,9.95
2022-07-25T06:08:18.588Z,9.85
2022-07-25T06:10:46.294Z,11.93
2022-07-25T06:13:15.483Z,10.25
2022-07-25T06:15:43.347Z,12.60
2022-07-25T06:18:13.420Z,12.95
2022-07-25T06:20:41.117Z,12.20
2022-07-25T06:23:08.829Z,12.13
2022-07-25T06:25:36.531Z,11.65
2022-07-25T06:28:04.381Z,11.45
2022-07-25T06:30:33.512Z,10.77
2022-07-25T06:33:01.223Z,10.97
2022-07-25T06:35:28.935Z,9.55
2022-07-25T06:37:56.697Z,9.05
2022-07-25T06:40:24.469Z,8.18
2022-07-25T06:42:52.205Z,8.50
2022-07-25T06:45:19.922Z,7.97
2022-07-25T06:47:49.009Z,7.57
2022-07-25T06:50:18.533Z,8.40
2022-07-25T06:52:49.181Z,7.70
2022-07-25T06:55:16.951Z,7.15
2022-07-25T06:57:44.724Z,8.30
2022-07-25T07:00:13.515Z,8.02
2022-07-25T07:02:53.420Z,8.15
2022-07-25T07:05:21.480Z,7.75
2022-07-25T07:07:49.216Z,7.30
2022-07-25T07:10:16.925Z,7.53
2022-07-25T07:12:44.677Z,7.25
2022-07-25T07:15:12.585Z,7.57
2022-07-25T07:17:40.344Z,6.45
2022-07-25T07:20:10.610Z,7.50
2022-07-25T07:22:45.131Z,6.50
2022-07-25T07:25:14.216Z,6.38
2022-07-25T07:27:41.976Z,7.13
2022-07-25T07:30:10.811Z,6.65
2022-07-25T07:32:39.041Z,6.90
2022-07-25T07:35:07.612Z,6.78
2022-07-25T07:37:41.421Z,6.45
2022-07-25T07:40:16.933Z,6.60
2022-07-25T07:42:45.777Z,7.57
2022-07-25T07:45:14.648Z,6.55
2022-07-25T07:47:42.490Z,7.05
2022-07-25T07:50:11.355Z,6.30
2022-07-25T07:52:40.540Z,6.68
2022-07-25T07:55:26.487Z,6.90
2022-07-25T07:57:54.246Z,9.32
2022-07-25T08:00:22.074Z,8.02
2022-07-25T08:02:50.570Z,7.20
2022-07-25T08:05:21.909Z,7.10
2022-07-25T08:07:51.746Z,6.60
2022-07-25T08:10:22.885Z,11.02
2022-07-25T08:12:50.901Z,10.10
2022-07-25T08:15:18.859Z,8.70
2022-07-25T08:17:47.044Z,7.80
2022-07-25T08:20:36.970Z,6.90
2022-07-25T08:23:04.068Z,6.80
2022-07-25T08:25:32.163Z,7.22
2022-07-25T08:28:00.049Z,7.20
2022-07-25T08:30:27.823Z,9.35
2022-07-25T08:32:56.677Z,7.15
2022-07-25T08:35:25.266Z,7.43
2022-07-25T08:37:52.989Z,7.07
2022-07-25T08:40:23.147Z,7.22
2022-07-25T08:42:51.148Z,7.82
2022-07-25T08:45:19.609Z,6.88
2022-07-25T08:47:47.475Z,15.30
2022-07-25T08:50:17.198Z,13.07
2022-07-25T08:52:45.464Z,10.45
2022-07-25T08:55:14.715Z,8.50
2022-07-25T08:57:45.013Z,8.60
2022-07-25T09:00:13.822Z,7.63
2022-07-25T09:02:41.649Z,7.53
2022-07-25T09:05:09.701Z,7.20
2022-07-25T09:07:38.298Z,8.25
2022-07-25T09:10:16.555Z,7.35
2022-07-25T09:12:52.334Z,7.60
2022-07-25T09:15:27.500Z,7.93
2022-07-25T09:17:57.344Z,7.78
2022-07-25T09:20:25.331Z,7.45
2022-07-25T09:22:53.037Z,8.05
2022-07-25T09:25:24.628Z,7.47
2022-07-25T09:27:53.672Z,7.28
2022-07-25T09:30:21.376Z,7.07
2022-07-25T09:32:49.099Z,6.95
2022-07-25T09:35:16.849Z,6.97
2022-07-25T09:37:44.586Z,6.95
2022-07-25T09:40:16.239Z,7.25
2022-07-25T09:42:46.242Z,7.10
2022-07-25T09:45:15.609Z,6.80
2022-07-25T09:47:54.230Z,6.88
2022-07-25T09:50:22.600Z,7.35
2022-07-25T09:52:51.974Z,7.28
2022-07-25T09:55:20.405Z,6.75
2022-07-25T09:57:49.081Z,7.47
2022-07-25T10:00:21.100Z,6.90
2022-07-25T10:02:50.371Z,7.03
2022-07-25T10:05:22.055Z,7.28
2022-07-25T10:07:51.887Z,7.32
2022-07-25T10:10:27.071Z,7.20
2022-07-25T10:13:05.236Z,7.47
2022-07-25T10:15:45.898Z,6.70
2022-07-25T10:18:13.874Z,7.28
2022-07-25T10:20:41.774Z,7.43
2022-07-25T10:23:18.966Z,7.65
2022-07-25T10:25:49.156Z,6.85
2022-07-25T10:28:19.076Z,7.07
2022-07-25T10:30:48.262Z,6.75
2022-07-25T10:33:16.600Z,7.03
2022-07-25T10:35:44.430Z,6.40
2022-07-25T10:38:12.443Z,6.82
2022-07-25T10:40:40.827Z,5.90
2022-07-25T10:43:09.849Z,6.75
2022-07-25T10:45:44.528Z,6.22
2022-07-25T10:48:21.103Z,6.30
2022-07-25T10:50:56.051Z,6.15
2022-07-25T10:53:38.349Z,5.97
2022-07-25T10:56:10.212Z,5.55
2022-07-25T10:58:48.277Z,6.05
2022-07-25T11:01:16.192Z,5.80
2022-07-25T11:03:45.945Z,5.75
2022-07-25T11:06:15.106Z,5.80
2022-07-25T11:08:42.936Z,5.70
2022-07-25T11:11:11.244Z,5.60
2022-07-25T11:13:39.787Z,5.80
2022-07-25T11:16:07.963Z,6.22
2022-07-25T11:18:40.487Z,5.82
2022-07-25T11:21:09.925Z,5.80
2022-07-25T11:23:37.701Z,5.70
2022-07-25T11:26:09.445Z,5.75
2022-07-25T11:28:44.305Z,6.85
2022-07-25T11:31:12.480Z,6.85
2022-07-25T11:33:40.449Z,6.35
2022-07-25T11:36:10.739Z,6.75
2022-07-25T11:38:38.872Z,7.03
2022-07-25T11:41:06.962Z,6.60
2022-07-25T11:43:34.730Z,7.40
2022-07-25T11:46:03.408Z,6.70
2022-07-25T11:48:32.707Z,7.20
2022-07-25T11:51:13.720Z,7.05
2022-07-25T11:53:45.097Z,6.72
2022-07-25T11:56:40.852Z,6.60
2022-07-25T11:59:04.947Z,7.00
2022-07-25T12:01:36.296Z,7.63
2022-07-25T12:06:30.197Z,6.75
2022-07-25T12:08:57.976Z,7.25
2022-07-25T12:11:25.712Z,7.40
2022-07-25T12:13:53.412Z,7.03
2022-07-25T12:16:21.211Z,5.90
2022-07-25T12:18:48.932Z,6.70
2022-07-25T12:21:16.657Z,7.53
2022-07-25T12:23:45.946Z,6.93
2022-07-25T12:26:14.503Z,7.38
2022-07-25T12:28:42.261Z,7.70
2022-07-25T12:31:10.467Z,7.53
2022-07-25T12:33:38.305Z,7.47
2022-07-25T12:36:08.546Z,7.53
2022-07-25T12:38:36.583Z,7.05
2022-07-25T12:41:05.903Z,7.78
2022-07-25T12:43:33.696Z,7.80
2022-07-25T12:46:01.484Z,7.68
2022-07-25T12:48:29.315Z,7.45
2022-07-25T12:50:57.634Z,8.13
2022-07-25T12:53:25.458Z,8.18
2022-07-25T12:55:53.157Z,7.60
2022-07-25T12:58:22.216Z,8.00
2022-07-25T13:00:49.960Z,8.15
2022-07-25T13:03:18.073Z,8.23
2022-07-25T13:05:45.794Z,7.88
2022-07-25T13:08:13.544Z,7.50
2022-07-25T13:10:41.249Z,7.57
2022-07-25T13:13:08.986Z,7.68
2022-07-25T13:15:38.111Z,7.80
2022-07-25T13:18:06.265Z,7.88
2022-07-25T13:20:36.072Z,7.75
2022-07-25T13:25:31.400Z,8.00
2022-07-25T13:27:59.137Z,7.72
2022-07-25T13:30:26.865Z,7.72
2022-07-25T13:32:55.939Z,7.80
2022-07-25T13:35:31.514Z,7.85
2022-07-25T13:38:01.589Z,7.85
2022-07-25T13:40:29.296Z,7.85
2022-07-25T13:42:57.196Z,7.57
2022-07-25T13:45:24.947Z,7.82
2022-07-25T13:48:12.260Z,7.15
2022-07-25T13:50:41.783Z,7.55
2022-07-25T13:53:09.597Z,7.70
2022-07-25T13:55:38.093Z,7.18
2022-07-25T13:58:05.829Z,7.55
2022-07-25T14:00:33.562Z,7.70
2022-07-25T14:03:01.310Z,7.28
2022-07-25T14:05:29.003Z,7.43
2022-07-25T14:07:58.136Z,7.25
2022-07-25T14:10:25.993Z,7.35
2022-07-25T14:12:53.756Z,7.50
2022-07-25T14:15:21.539Z,7.20
2022-07-25T14:17:49.285Z,7.38
2022-07-25T14:20:18.901Z,7.15
2022-07-25T14:22:46.637Z,7.50
2022-07-25T14:25:15.689Z,6.97
2022-07-25T14:27:43.476Z,7.20
2022-07-25T14:30:12.566Z,6.70
2022-07-25T14:32:40.287Z,7.38
2022-07-25T14:35:08.253Z,7.40
2022-07-25T14:37:36.185Z,7.10
2022-07-25T14:40:04.302Z,6.72
2022-07-25T14:42:34.312Z,7.50
2022-07-25T14:45:02.018Z,6.70
2022-07-25T14:47:29.753Z,7.10
2022-07-25T14:49:57.459Z,7.43
2022-07-25T14:52:25.212Z,7.05
2022-07-25T14:54:52.944Z,6.90
2022-07-25T14:57:20.676Z,7.22
2022-07-25T14:59:49.726Z,6.80
2022-07-25T15:02:17.489Z,6.78
2022-07-25T15:04:45.251Z,6.90
2022-07-25T15:07:13.036Z,6.45
2022-07-25T15:09:40.731Z,6.85
2022-07-25T15:12:12.191Z,6.53
2022-07-25T15:14:43.905Z,6.85
2022-07-25T15:17:13.446Z,6.80
2022-07-25T15:19:41.166Z,6.63
2022-07-25T15:22:08.897Z,7.15
2022-07-25T15:25:04.375Z,7.03
2022-07-25T15:27:24.440Z,6.68
2022-07-25T15:29:52.174Z,6.80
2022-07-25T15:32:21.264Z,6.97
2022-07-25T15:34:48.972Z,7.38
2022-07-25T15:37:16.701Z,6.95
2022-07-25T15:39:45.345Z,6.38
2022-07-25T15:42:13.191Z,7.10
2022-07-25T15:44:40.914Z,7.00
2022-07-25T15:47:08.888Z,6.75
2022-07-25T15:49:38.032Z,6.63
2022-07-25T15:52:06.130Z,6.65
2022-07-25T15:54:33.883Z,7.10
2022-07-25T15:57:01.984Z,6.57
2022-07-25T15:59:30.642Z,6.70
2022-07-25T16:01:58.335Z,6.60
2022-07-25T16:04:26.237Z,6.70
2022-07-25T16:06:55.374Z,6.20
2022-07-25T16:09:23.101Z,6.88
2022-07-25T16:11:50.827Z,6.80
2022-07-25T16:14:18.567Z,6.57
2022-07-25T16:16:46.364Z,7.03
2022-07-25T16:19:14.130Z,6.93
2022-07-25T16:21:42.083Z,6.97
2022-07-25T16:24:11.486Z,6.93
2022-07-25T16:26:39.253Z,7.20
2022-07-25T16:29:07.762Z,6.78
2022-07-25T16:31:35.859Z,6.30
2022-07-25T16:34:03.859Z,7.03
2022-07-25T16:36:31.610Z,6.80
2022-07-25T16:38:59.721Z,6.60
2022-07-25T16:41:28.859Z,6.82
2022-07-25T16:43:58.166Z,6.05
2022-07-25T16:46:28.565Z,6.10
2022-07-25T16:48:56.509Z,5.80
2022-07-25T16:51:24.247Z,6.20
2022-07-25T16:53:52.052Z,6.28
2022-07-25T16:56:19.764Z,5.88
2022-07-25T16:58:48.829Z,6.20
2022-07-25T17:01:16.586Z,5.68
2022-07-25T17:03:44.324Z,6.07
2022-07-25T17:06:12.045Z,5.47
2022-07-25T17:08:39.784Z,5.05
2022-07-25T17:11:07.618Z,5.25
2022-07-25T17:13:35.344Z,5.47
2022-07-25T17:16:05.233Z,5.30
2022-07-25T17:18:33.049Z,4.82
2022-07-25T17:21:00.769Z,5.10
2022-07-25T17:23:28.530Z,5.40
2022-07-25T17:25:56.252Z,4.72
2022-07-25T17:28:23.971Z,4.95
2022-07-25T17:30:52.218Z,4.90
2022-07-25T17:33:21.314Z,5.43
2022-07-25T17:35:49.029Z,4.78
2022-07-25T17:38:16.759Z,4.25
2022-07-25T17:40:44.460Z,4.35
2022-07-25T17:43:12.221Z,4.50
2022-07-25T17:45:39.942Z,4.50
2022-07-25T17:48:07.847Z,4.07
2022-07-25T17:50:36.935Z,4.03
2022-07-25T17:53:04.789Z,4.35
2022-07-25T17:55:38.339Z,4.13
2022-07-25T17:58:06.808Z,3.70
2022-07-25T18:00:34.522Z,4.57
2022-07-25T18:03:02.318Z,3.72
2022-07-25T18:05:30.080Z,3.78
2022-07-25T18:07:59.191Z,4.00
2022-07-25T18:10:26.911Z,3.88
2022-07-25T18:12:54.660Z,3.60
2022-07-25T18:15:22.364Z,3.50
2022-07-25T18:17:50.097Z,3.47
2022-07-25T18:20:18.092Z,4.07
2022-07-25T18:22:45.832Z,3.60
2022-07-25T18:25:15.475Z,3.60
2022-07-25T18:27:43.463Z,3.40
2022-07-25T18:30:11.703Z,3.85
2022-07-25T18:32:39.513Z,3.58
2022-07-25T18:35:07.902Z,3.58
2022-07-25T18:37:37.023Z,3.70
2022-07-25T18:40:05.533Z,3.63
2022-07-25T18:42:34.642Z,3.83
2022-07-25T18:45:02.429Z,3.60
2022-07-25T18:47:32.344Z,3.22
2022-07-25T18:50:00.357Z,3.47
2022-07-25T18:52:29.043Z,3.35
2022-07-25T18:54:57.150Z,3.40
2022-07-25T18:57:24.894Z,3.53
2022-07-25T18:59:53.983Z,3.60
2022-07-25T19:02:21.704Z,3.45
2022-07-25T19:04:49.430Z,3.33
2022-07-25T19:07:17.136Z,3.20
2022-07-25T19:09:45.007Z,3.45
2022-07-25T19:12:12.743Z,3.38
2022-07-25T19:14:40.488Z,3.45
2022-07-25T19:17:09.534Z,3.15
2022-07-25T19:19:37.337Z,3.37
2022-07-25T19:22:05.074Z,3.35
2022-07-25T19:24:32.823Z,3.17
2022-07-25T19:27:00.532Z,2.95
2022-07-25T19:29:28.264Z,3.40
2022-07-25T19:31:55.977Z,3.20
2022-07-25T19:34:25.156Z,3.20
2022-07-25T19:36:54.861Z,3.13
2022-07-25T19:39:22.743Z,3.05
2022-07-25T19:41:50.488Z,3.20
2022-07-25T19:44:18.230Z,3.05
2022-07-25T19:46:46.356Z,3.28
2022-07-25T19:49:14.303Z,3.17
2022-07-25T19:51:43.409Z,2.97
2022-07-25T19:54:11.533Z,3.10
2022-07-25T19:56:39.405Z,3.05
2022-07-25T19:59:07.169Z,3.30
2022-07-25T20:01:35.914Z,2.90
2022-07-25T20:04:05.477Z,3.20
2022-07-25T20:06:33.502Z,2.90
2022-07-25T20:09:03.050Z,3.00
2022-07-25T20:11:30.763Z,2.85
2022-07-25T20:13:58.494Z,3.05
2022-07-25T20:16:26.259Z,3.15
2022-07-25T20:18:54.031Z,2.90
2022-07-25T20:21:21.772Z,3.17
2022-07-25T20:23:49.532Z,2.80
2022-07-25T20:26:18.602Z,3.20
2022-07-25T20:28:46.424Z,2.90
2022-07-25T20:31:14.283Z,2.70
2022-07-25T20:33:42.102Z,2.75
2022-07-25T20:36:10.009Z,2.70
2022-07-25T20:38:37.744Z,3.00
2022-07-25T20:41:06.170Z,3.05
2022-07-25T20:43:35.887Z,3.28
2022-07-25T20:46:08.901Z,2.78
2022-07-25T20:48:37.237Z,3.05
2022-07-25T20:51:05.296Z,2.50
2022-07-25T20:53:33.308Z,2.80
2022-07-25T20:56:02.529Z,2.85
2022-07-25T20:58:31.357Z,3.10
2022-07-25T21:01:01.824Z,2.92
2022-07-25T21:03:29.650Z,3.03
2022-07-25T21:05:57.371Z,2.90
2022-07-25T21:08:25.084Z,2.80
2022-07-25T21:10:53.565Z,2.90
2022-07-25T21:13:21.277Z,2.97
2022-07-25T21:15:49.032Z,3.08
2022-07-25T21:18:18.115Z,2.83
2022-07-25T21:20:46.599Z,3.00
2022-07-25T21:23:15.223Z,2.92
2022-07-25T21:25:43.044Z,2.88
2022-07-25T21:28:10.758Z,2.60
2022-07-25T21:30:41.106Z,2.55
2022-07-25T21:33:14.375Z,2.92
2022-07-25T21:35:50.447Z,2.78
2022-07-25T21:38:26.428Z,3.08
2022-07-25T21:40:56.150Z,2.65
2022-07-25T21:43:23.903Z,2.63
2022-07-25T21:45:51.698Z,2.75
2022-07-25T21:48:39.575Z,2.88
2022-07-25T21:51:18.755Z,2.55
2022-07-25T21:53:51.187Z,2.47
2022-07-25T21:56:19.097Z,2.38
2022-07-25T21:58:46.812Z,2.47
2022-07-25T22:01:14.597Z,2.75
2022-07-25T22:03:42.411Z,2.70
2022-07-25T22:06:11.780Z,2.22
2022-07-25T22:08:39.716Z,2.70
2022-07-25T22:11:15.973Z,2.33
2022-07-25T22:16:16.474Z,2.45
2022-07-25T22:18:44.216Z,2.28
2022-07-25T22:21:13.288Z,2.42
2022-07-25T22:23:43.578Z,2.30
2022-07-25T22:26:11.362Z,2.88
2022-07-25T22:28:39.059Z,2.30
2022-07-25T22:31:07.009Z,2.40
2022-07-25T22:33:34.966Z,2.60
2022-07-25T22:36:02.811Z,2.30
2022-07-25T22:38:31.860Z,2.15
2022-07-25T22:40:59.591Z,2.10
2022-07-25T22:43:56.776Z,2.10
2022-07-25T22:46:15.504Z,2.20
2022-07-25T22:48:43.446Z,2.28
2022-07-25T22:51:11.923Z,2.00
2022-07-25T22:53:40.967Z,2.05
2022-07-25T22:56:08.814Z,2.00
2022-07-25T22:58:36.530Z,1.90
2022-07-25T23:01:04.272Z,2.20
2022-07-25T23:03:33.022Z,2.30
2022-07-25T23:06:00.956Z,2.13
2022-07-25T23:08:28.663Z,2.10
2022-07-25T23:10:57.805Z,2.08
2022-07-25T23:13:25.517Z,2.30
2022-07-25T23:15:53.234Z,2.20
2022-07-25T23:18:20.958Z,2.17
2022-07-25T23:20:48.716Z,2.10
2022-07-25T23:23:16.416Z,2.10
2022-07-25T23:25:44.149Z,1.85
2022-07-25T23:28:13.198Z,2.05
2022-07-25T23:30:40.943Z,2.07
2022-07-25T23:33:08.687Z,1.83
2022-07-25T23:35:36.514Z,2.22
2022-07-25T23:38:04.313Z,2.20
2022-07-25T23:40:32.053Z,2.00
2022-07-25T23:42:59.764Z,1.90
2022-07-25T23:45:29.027Z,1.95
2022-07-25T23:47:56.914Z,2.17
2022-07-25T23:50:24.759Z,2.05
2022-07-25T23:52:52.489Z,2.00
2022-07-25T23:55:20.397Z,2.08
2022-07-25T23:57:48.113Z,2.03
